Time;durP1;ratioP1;P1;durP2;ratioP2;P2;SDS_P1;SDS_P2;PMS_P1;PMS_P2;Temp;Humidity;BMP_temperature;BMP_pressure;BME280_temperature;BME280_humidity;BME280_pressure;Samples;Min_cycle;Max_cycle;Signal;HPM_P1;HPM_P2
2021/01/22 00:00:07;;;;;;;5.55;1.30;;;8.40;99.90;;;;;;9980213;29;20144;-92
2021/01/22 00:05:10;;;;;;;5.30;1.42;;;8.40;99.90;;;;;;9980488;29;20058;-91
2021/01/22 00:10:12;;;;;;;3.22;2.03;;;8.30;99.90;;;;;;9994273;29;20429;-92
2021/01/22 00:15:15;;;;;;;;;;;6.90;99.90;;;;;;9996028;29;20145;-92
2021/01/22 00:20:17;;;;;;;2.10;2.00;;;6.00;99.90;;;;;;9995384;29;19924;-91
2021/01/22 00:25:18;;;;;;;2.50;2.30;;;6.50;99.90;;;;;;9994490;29;20085;-89
2021/01/22 00:30:20;;;;;;;2.10;1.90;;;4.80;99.90;;;;;;9994625;29;20455;-91
2021/01/22 00:35:21;;;;;;;;;;;5.10;99.90;;;;;;9994711;29;20089;-92
2021/01/22 00:40:23;;;;;;;1.88;1.77;;;5.90;99.90;;;;;;9993129;29;20399;-91
2021/01/22 00:45:24;;;;;;;2.17;1.98;;;4.80;99.90;;;;;;9993391;29;20062;-91
2021/01/22 00:50:26;;;;;;;4.10;2.40;;;4.60;99.90;;;;;;9993062;29;20089;-92
2021/01/22 00:55:28;;;;;;;2.47;2.28;;;5.50;99.90;;;;;;9994005;29;20066;-91
2021/01/22 01:00:30;;;;;;;1.15;1.02;;;4.40;99.90;;;;;;9993663;29;20100;-92
2021/01/22 01:05:31;;;;;;;1.13;1.02;;;4.20;99.90;;;;;;10001796;29;20061;-92
2021/01/22 01:10:33;;;;;;;1.30;1.15;;;4.00;99.90;;;;;;9955908;29;20054;-91
2021/01/22 01:15:34;;;;;;;1.35;1.15;;;4.50;99.90;;;;;;9955019;29;20065;-91
2021/01/22 01:20:36;;;;;;;1.10;1.00;;;3.50;99.90;;;;;;9970266;29;20062;-91
2021/01/22 01:25:37;;;;;;;0.80;0.80;;;4.40;99.90;;;;;;9969782;29;20074;-91
2021/01/22 01:30:38;;;;;;;1.63;1.52;;;4.10;99.90;;;;;;9955291;29;20093;-91
2021/01/22 01:35:40;;;;;;;1.77;1.67;;;3.80;99.90;;;;;;9954424;29;20526;-91
2021/01/22 01:40:41;;;;;;;;;;;4.20;99.90;;;;;;9955151;29;20142;-91
2021/01/22 01:45:43;;;;;;;3.10;2.80;;;3.50;99.90;;;;;;9954675;29;20015;-92
2021/01/22 01:50:45;;;;;;;4.15;3.80;;;3.60;99.90;;;;;;9969415;29;20054;-91
2021/01/22 01:55:46;;;;;;;4.50;4.10;;;3.60;99.90;;;;;;9968691;29;20097;-92
2021/01/22 02:00:48;;;;;;;;;;;4.50;99.90;;;;;;9954672;29;20512;-92
2021/01/22 02:05:50;;;;;;;5.20;3.47;;;3.90;99.90;;;;;;9965061;29;19984;-93
2021/01/22 02:10:53;;;;;;;4.80;4.07;;;4.30;99.90;;;;;;9977088;29;20161;-92
2021/01/22 02:15:56;;;;;;;3.78;3.47;;;4.00;99.90;;;;;;10006518;29;20149;-92
2021/01/22 02:21:25;;;;;;;4.38;3.92;;;4.30;99.90;;;;;;9992024;29;20163;-92
2021/01/22 02:26:29;;;;;;;7.43;6.07;;;3.50;99.90;;;;;;10008895;29;20502;-91
2021/01/22 02:31:37;;;;;;;6.60;5.70;;;3.80;99.90;;;;;;10006046;29;20058;-91
2021/01/22 02:36:43;;;;;;;7.88;6.55;;;3.40;99.90;;;;;;10005025;29;20571;-91
2021/01/22 02:41:47;;;;;;;12.77;10.68;;;4.00;99.90;;;;;;10006088;29;20167;-91
2021/01/22 02:46:49;;;;;;;16.13;10.07;;;4.10;99.90;;;;;;9990456;29;20100;-91
2021/01/22 02:51:50;;;;;;;9.63;8.48;;;3.40;99.90;;;;;;9990936;29;20085;-91
2021/01/22 02:57:05;;;;;;;18.00;11.32;;;3.30;99.90;;;;;;9991059;29;20141;-91
2021/01/22 03:02:34;;;;;;;12.05;9.25;;;3.50;99.90;;;;;;9994766;29;20062;-91
2021/01/22 03:07:47;;;;;;;15.18;10.82;;;3.60;99.90;;;;;;9973829;29;20065;-91
2021/01/22 03:12:51;;;;;;;11.07;9.73;;;3.50;99.90;;;;;;9959758;29;20608;-91
2021/01/22 03:18:19;;;;;;;15.95;12.57;;;3.60;99.90;;;;;;9959400;29;20145;-91
2021/01/22 03:23:21;;;;;;;15.82;11.75;;;3.30;99.90;;;;;;9958573;29;20059;-91
2021/01/22 03:28:22;;;;;;;12.63;9.50;;;3.10;99.90;;;;;;9973554;29;20062;-91
2021/01/22 03:33:24;;;;;;;13.60;8.98;;;3.80;99.90;;;;;;9959095;29;20121;-92
2021/01/22 03:38:26;;;;;;;;;;;4.10;99.90;;;;;;9959272;29;20132;-92
2021/01/22 03:43:27;;;;;;;12.40;10.20;;;4.00;99.90;;;;;;9958551;29;19925;-92
2021/01/22 03:48:29;;;;;;;14.80;11.07;;;3.00;99.90;;;;;;9958364;29;20058;-91
2021/01/22 03:53:30;;;;;;;;;;;2.80;99.90;;;;;;9958719;29;20081;-91
2021/01/22 03:58:31;;;;;;;15.20;10.65;;;4.50;99.90;;;;;;9957515;29;20355;-91
2021/01/22 04:03:33;;;;;;;10.60;8.23;;;3.70;99.90;;;;;;9963212;29;20160;-91
2021/01/22 04:08:35;;;;;;;10.80;8.95;;;2.90;99.90;;;;;;9995719;29;20065;-91
2021/01/22 04:13:37;;;;;;;12.80;9.07;;;2.80;99.90;;;;;;9995098;29;20131;-91
2021/01/22 04:18:39;;;;;;;26.50;9.85;;;2.80;99.90;;;;;;9979303;29;20413;-91
2021/01/22 04:23:41;;;;;;;11.70;8.18;;;3.70;99.90;;;;;;10011650;29;20058;-91
2021/01/22 04:28:43;;;;;;;9.40;6.85;;;3.90;99.90;;;;;;10009755;29;20141;-91
2021/01/22 04:33:44;;;;;;;14.93;8.07;;;2.60;99.90;;;;;;9994472;29;20490;-91
2021/01/22 04:38:46;;;;;;;12.98;8.57;;;3.30;99.90;;;;;;9994858;29;20186;-91
2021/01/22 04:43:47;;;;;;;13.75;9.43;;;2.70;99.90;;;;;;9994206;29;20532;-92
2021/01/22 04:48:49;;;;;;;19.85;12.18;;;2.70;99.90;;;;;;9993889;29;20064;-91
2021/01/22 04:53:55;;;;;;;14.57;11.00;;;3.20;99.90;;;;;;10007917;29;20149;-91
2021/01/22 04:59:00;;;;;;;18.25;11.85;;;2.90;99.90;;;;;;9993041;29;20149;-91
2021/01/22 05:04:02;;;;;;;16.48;12.90;;;3.00;99.90;;;;;;9985105;29;20059;-90
2021/01/22 05:09:03;;;;;;;27.95;19.42;;;3.20;99.90;;;;;;9985306;29;20054;-90
2021/01/22 05:14:05;;;;;;;;;;;3.20;99.90;;;;;;9984782;29;20062;-91
2021/01/22 05:19:24;;;;;;;23.60;17.45;;;3.30;99.90;;;;;;9955408;29;20404;-90
2021/01/22 05:24:27;;;;;;;24.75;17.05;;;3.20;99.90;;;;;;9969555;29;20054;-91
2021/01/22 05:29:30;;;;;;;25.08;17.63;;;4.20;99.90;;;;;;9954956;29;20086;-91
2021/01/22 05:34:47;;;;;;;22.70;15.82;;;3.10;99.90;;;;;;9955799;29;20062;-90
2021/01/22 05:40:13;;;;;;;27.90;17.25;;;3.30;99.90;;;;;;9969722;29;20123;-91
2021/01/22 05:45:17;;;;;;;25.77;19.15;;;3.30;99.90;;;;;;9955107;29;20490;-92
2021/01/22 12:41:09;;;;;;;13.63;4.35;;;6.00;99.90;;;;;;10073569;29;20058;-94
2021/01/22 18:45:48;;;;;;;17.30;10.55;;;1.40;99.90;;;;;;10084564;29;20061;-95
2021/01/22 18:50:50;;;;;;;16.33;10.70;;;1.20;99.90;;;;;;9926122;29;20080;-92
2021/01/22 18:55:52;;;;;;;17.42;11.85;;;1.60;99.90;;;;;;9915304;30;20123;-92
2021/01/22 19:00:54;;;;;;;22.55;11.27;;;1.30;99.90;;;;;;9900838;30;20455;-92
2021/01/22 19:05:55;;;;;;;21.92;12.68;;;1.50;99.90;;;;;;9915307;30;20055;-92
2021/01/22 19:10:57;;;;;;;43.38;19.20;;;1.60;99.90;;;;;;9915105;30;20056;-92
2021/01/22 19:15:59;;;;;;;29.58;15.63;;;2.20;99.90;;;;;;9914919;30;20074;-92
2021/01/22 19:21:00;;;;;;;27.65;17.08;;;1.30;99.90;;;;;;9885969;30;20068;-92
2021/01/22 19:26:03;;;;;;;16.70;9.55;;;1.20;99.90;;;;;;9885309;30;20055;-92
2021/01/22 19:31:05;;;;;;;17.58;10.55;;;1.30;99.90;;;;;;9899375;30;20120;-92
2021/01/22 19:36:09;;;;;;;18.83;9.65;;;2.60;99.90;;;;;;9884831;30;20063;-92
2021/01/22 19:41:12;;;;;;;14.25;9.60;;;1.70;99.90;;;;;;9884974;30;20084;-92
2021/01/22 19:46:14;;;;;;;14.95;7.97;;;2.00;99.90;;;;;;9898612;29;20427;-91
2021/01/22 19:51:16;;;;;;;;;;;1.30;99.90;;;;;;9899280;30;20066;-92
2021/01/22 19:56:17;;;;;;;20.07;10.60;;;3.00;99.90;;;;;;9913866;30;20351;-92
2021/01/22 20:01:19;;;;;;;18.50;9.75;;;1.80;99.90;;;;;;9899044;30;20138;-91
2021/01/22 20:06:20;;;;;;;;;;;2.10;99.90;;;;;;9898651;30;20055;-92
2021/01/22 20:11:24;;;;;;;15.60;9.00;;;1.60;99.90;;;;;;9927808;29;20393;-92
2021/01/22 20:16:25;;;;;;;21.83;11.68;;;2.40;99.90;;;;;;9898215;30;20440;-92
2021/01/22 20:21:29;;;;;;;17.80;9.43;;;2.00;99.90;;;;;;9942611;29;20582;-91
2021/01/22 20:26:30;;;;;;;21.02;11.15;;;2.10;99.90;;;;;;9912463;30;20066;-90
2021/01/22 20:31:32;;;;;;;18.63;10.13;;;2.30;99.90;;;;;;9913339;30;20067;-91
2021/01/22 20:36:34;;;;;;;20.77;11.50;;;2.10;99.90;;;;;;9941933;29;20073;-91
2021/01/22 20:41:37;;;;;;;19.77;13.00;;;2.70;99.90;;;;;;9925346;29;20522;-91
2021/01/22 20:46:38;;;;;;;19.95;10.57;;;2.50;99.90;;;;;;9911341;30;20083;-91
2021/01/22 20:51:55;;;;;;;16.15;10.18;;;2.00;99.90;;;;;;9924993;29;20111;-92
2021/01/22 20:56:56;;;;;;;14.80;10.63;;;2.80;99.90;;;;;;9941766;29;20175;-92
2021/01/22 21:01:58;;;;;;;19.70;12.07;;;1.60;99.90;;;;;;9926207;29;20563;-92
2021/01/22 21:06:59;;;;;;;19.10;10.50;;;1.70;99.90;;;;;;9910036;30;20062;-93
2021/01/22 21:12:01;;;;;;;17.17;9.82;;;1.60;99.90;;;;;;9926098;29;20065;-92
2021/01/22 21:17:03;;;;;;;28.95;14.63;;;1.60;99.90;;;;;;9897813;30;20500;-92
2021/01/22 21:22:05;;;;;;;18.05;11.55;;;1.30;99.90;;;;;;9873523;30;20471;-92
2021/01/22 21:27:06;;;;;;;15.50;9.57;;;1.50;99.90;;;;;;9873314;30;20059;-91
2021/01/22 21:32:08;;;;;;;18.05;9.57;;;1.40;99.90;;;;;;9902599;29;20070;-91
2021/01/22 21:37:09;;;;;;;;;;;1.60;99.90;;;;;;9902522;29;20480;-92
2021/01/22 21:42:11;;;;;;;20.25;8.43;;;1.50;99.90;;;;;;9888268;30;20025;-92
2021/01/22 21:47:13;;;;;;;13.00;8.65;;;1.80;99.90;;;;;;9901799;29;20117;-92
2021/01/22 21:52:15;;;;;;;;;;;1.60;99.90;;;;;;9872924;30;20063;-92
2021/01/22 21:57:17;;;;;;;16.35;8.57;;;1.70;99.90;;;;;;9887514;30;19925;-92
2021/01/22 22:02:18;;;;;;;;;;;1.40;99.90;;;;;;9873112;30;20060;-92
2021/01/22 22:07:19;;;;;;;13.25;6.90;;;1.70;99.90;;;;;;9871972;30;19983;-91
2021/01/22 22:12:21;;;;;;;15.65;8.43;;;1.40;99.90;;;;;;9873434;30;20055;-92
2021/01/22 22:17:22;;;;;;;16.65;7.43;;;2.20;99.90;;;;;;9909943;30;20070;-92
2021/01/22 22:22:24;;;;;;;;;;;1.40;99.90;;;;;;9908854;30;20871;-92
2021/01/22 22:27:25;;;;;;;19.05;8.15;;;2.10;99.90;;;;;;9923669;29;19932;-92
2021/01/22 22:32:27;;;;;;;9.23;6.35;;;1.60;99.90;;;;;;9909037;30;20404;-92
2021/01/22 22:37:28;;;;;;;;;;;1.00;99.90;;;;;;9909991;29;20086;-92
2021/01/22 22:42:30;;;;;;;18.02;8.57;;;1.30;99.90;;;;;;9923984;29;19932;-92
2021/01/22 22:47:31;;;;;;;11.82;6.82;;;1.20;99.90;;;;;;9897166;29;20060;-92
2021/01/22 22:52:33;;;;;;;15.48;8.23;;;1.10;99.90;;;;;;9886794;30;20147;-93
2021/01/22 22:57:35;;;;;;;14.80;7.88;;;1.40;99.90;;;;;;9871469;30;20067;-92
2021/01/22 23:02:37;;;;;;;;;;;1.60;99.90;;;;;;9901524;29;20564;-93
2021/01/22 23:07:38;;;;;;;15.57;8.73;;;0.70;99.90;;;;;;9901406;29;19930;-92
2021/01/22 23:12:41;;;;;;;;;;;0.70;99.90;;;;;;9889887;30;20057;-93
2021/01/22 23:17:42;;;;;;;16.00;7.43;;;2.10;99.90;;;;;;9892140;30;20294;-92
2021/01/22 23:22:44;;;;;;;19.48;8.50;;;1.60;99.90;;;;;;9911846;29;20065;-92
2021/01/22 23:27:46;;;;;;;17.00;9.07;;;0.70;99.90;;;;;;9929249;29;20482;-93
2021/01/22 23:32:48;;;;;;;16.10;8.43;;;0.50;99.90;;;;;;9915229;30;20142;-93
2021/01/22 23:37:50;;;;;;;15.52;7.80;;;0.60;99.90;;;;;;9914678;30;20097;-94
2021/01/22 23:42:52;;;;;;;14.20;7.88;;;0.60;99.90;;;;;;9899554;30;20397;-93
2021/01/22 23:47:53;;;;;;;;;;;0.60;99.90;;;;;;9914634;29;20059;-93
2021/01/22 23:52:55;;;;;;;14.37;7.67;;;0.60;99.90;;;;;;9913879;30;20279;-93
2021/01/22 23:57:57;;;;;;;21.08;8.48;;;0.50;99.90;;;;;;9899077;30;20055;-93
